sensor_id;sensor_type;location;lat;lon;timestamp;pressure;altitude;pressure_sealevel;temperature;humidity
64889;BME280;51386;53.082;8.816;2023-11-19T00:00:28;100647.22;;;10.05;77.81
64889;BME280;51386;53.082;8.816;2023-11-19T00:02:57;100651.13;;;10.09;77.62
64889;BME280;51386;53.082;8.816;2023-11-19T00:05:25;100642.28;;;10.10;77.42
64889;BME280;51386;53.082;8.816;2023-11-19T00:07:55;100639.50;;;10.11;77.34
64889;BME280;51386;53.082;8.816;2023-11-19T00:10:24;100642.56;;;10.15;77.30
64889;BME280;51386;53.082;8.816;2023-11-19T00:12:53;100631.75;;;10.10;77.51
64889;BME280;51386;53.082;8.816;2023-11-19T00:15:21;100617.47;;;10.12;77.59
64889;BME280;51386;53.082;8.816;2023-11-19T00:17:52;100612.03;;;10.14;77.31
64889;BME280;51386;53.082;8.816;2023-11-19T00:20:22;100616.28;;;10.15;77.25
64889;BME280;51386;53.082;8.816;2023-11-19T00:22:50;100603.50;;;10.12;77.77
64889;BME280;51386;53.082;8.816;2023-11-19T00:25:22;100610.03;;;10.16;77.62
64889;BME280;51386;53.082;8.816;2023-11-19T00:27:50;100602.78;;;10.18;77.54
64889;BME280;51386;53.082;8.816;2023-11-19T00:30:19;100597.53;;;10.18;77.64
64889;BME280;51386;53.082;8.816;2023-11-19T00:32:48;100595.19;;;10.23;77.70
64889;BME280;51386;53.082;8.816;2023-11-19T00:35:17;100598.31;;;10.27;77.83
64889;BME280;51386;53.082;8.816;2023-11-19T00:37:45;100590.03;;;10.30;77.65
64889;BME280;51386;53.082;8.816;2023-11-19T00:40:16;100589.59;;;10.26;77.52
64889;BME280;51386;53.082;8.816;2023-11-19T00:42:46;100590.94;;;10.22;77.98
64889;BME280;51386;53.082;8.816;2023-11-19T00:45:15;100581.06;;;10.24;78.04
64889;BME280;51386;53.082;8.816;2023-11-19T00:47:44;100571.00;;;10.28;78.02
64889;BME280;51386;53.082;8.816;2023-11-19T00:50:12;100567.84;;;10.32;77.88
64889;BME280;51386;53.082;8.816;2023-11-19T00:52:41;100569.13;;;10.36;77.79
64889;BME280;51386;53.082;8.816;2023-11-19T00:55:09;100558.59;;;10.36;77.96
64889;BME280;51386;53.082;8.816;2023-11-19T00:57:39;100553.06;;;10.31;78.27
64889;BME280;51386;53.082;8.816;2023-11-19T01:00:09;100536.25;;;10.32;78.32
64889;BME280;51386;53.082;8.816;2023-11-19T01:02:47;100534.94;;;10.36;78.43
64889;BME280;51386;53.082;8.816;2023-11-19T01:05:20;100533.56;;;10.40;78.38
64889;BME280;51386;53.082;8.816;2023-11-19T01:07:52;100523.97;;;10.47;78.14
64889;BME280;51386;53.082;8.816;2023-11-19T01:10:22;100528.50;;;10.53;78.00
64889;BME280;51386;53.082;8.816;2023-11-19T01:12:50;100520.88;;;10.58;77.94
64889;BME280;51386;53.082;8.816;2023-11-19T01:15:19;100519.56;;;10.62;77.91
64889;BME280;51386;53.082;8.816;2023-11-19T01:17:47;100512.84;;;10.60;78.10
64889;BME280;51386;53.082;8.816;2023-11-19T01:20:20;100510.00;;;10.61;78.01
64889;BME280;51386;53.082;8.816;2023-11-19T01:22:49;100518.19;;;10.66;77.88
64889;BME280;51386;53.082;8.816;2023-11-19T01:25:18;100525.44;;;10.64;78.11
64889;BME280;51386;53.082;8.816;2023-11-19T01:27:47;100508.75;;;10.57;78.75
64889;BME280;51386;53.082;8.816;2023-11-19T01:30:15;100502.13;;;10.61;78.69
64889;BME280;51386;53.082;8.816;2023-11-19T01:32:43;100504.41;;;10.64;78.65
64889;BME280;51386;53.082;8.816;2023-11-19T01:35:12;100492.22;;;10.63;79.26
64889;BME280;51386;53.082;8.816;2023-11-19T01:37:40;100497.03;;;10.60;79.40
64889;BME280;51386;53.082;8.816;2023-11-19T01:40:09;100490.47;;;10.56;79.81
64889;BME280;51386;53.082;8.816;2023-11-19T01:42:40;100482.16;;;10.52;80.35
64889;BME280;51386;53.082;8.816;2023-11-19T01:45:09;100481.13;;;10.53;80.65
64889;BME280;51386;53.082;8.816;2023-11-19T01:47:38;100487.69;;;10.57;80.96
64889;BME280;51386;53.082;8.816;2023-11-19T01:50:07;100469.56;;;10.62;80.84
64889;BME280;51386;53.082;8.816;2023-11-19T01:52:37;100453.84;;;10.69;81.25
64889;BME280;51386;53.082;8.816;2023-11-19T01:55:09;100440.13;;;10.73;80.96
64889;BME280;51386;53.082;8.816;2023-11-19T01:57:38;100457.81;;;10.79;80.99
64889;BME280;51386;53.082;8.816;2023-11-19T02:00:10;100458.47;;;10.81;81.49
64889;BME280;51386;53.082;8.816;2023-11-19T02:02:41;100447.19;;;10.87;81.14
64889;BME280;51386;53.082;8.816;2023-11-19T02:05:11;100447.72;;;10.98;81.27
64889;BME280;51386;53.082;8.816;2023-11-19T02:07:41;100444.34;;;11.04;81.17
64889;BME280;51386;53.082;8.816;2023-11-19T02:10:09;100431.72;;;11.14;81.18
64889;BME280;51386;53.082;8.816;2023-11-19T02:12:42;100419.63;;;11.19;81.37
64889;BME280;51386;53.082;8.816;2023-11-19T02:15:11;100417.69;;;11.28;81.16
64889;BME280;51386;53.082;8.816;2023-11-19T02:17:40;100424.81;;;11.34;81.46
64889;BME280;51386;53.082;8.816;2023-11-19T02:20:08;100422.06;;;11.42;81.29
64889;BME280;51386;53.082;8.816;2023-11-19T02:22:39;100410.41;;;11.51;81.33
64889;BME280;51386;53.082;8.816;2023-11-19T02:25:20;100410.72;;;11.63;80.94
64889;BME280;51386;53.082;8.816;2023-11-19T02:27:58;100407.16;;;11.70;80.96
64889;BME280;51386;53.082;8.816;2023-11-19T02:30:28;100393.66;;;11.80;81.18
64889;BME280;51386;53.082;8.816;2023-11-19T02:33:00;100394.53;;;11.87;81.51
64889;BME280;51386;53.082;8.816;2023-11-19T02:35:33;100388.28;;;11.94;81.40
64889;BME280;51386;53.082;8.816;2023-11-19T02:38:01;100395.66;;;12.05;81.23
64889;BME280;51386;53.082;8.816;2023-11-19T02:40:34;100389.25;;;12.14;81.46
64889;BME280;51386;53.082;8.816;2023-11-19T02:43:03;100391.34;;;12.26;80.88
64889;BME280;51386;53.082;8.816;2023-11-19T02:45:33;100374.72;;;12.32;81.05
64889;BME280;51386;53.082;8.816;2023-11-19T02:48:01;100373.34;;;12.36;81.16
64889;BME280;51386;53.082;8.816;2023-11-19T02:50:30;100367.50;;;12.47;81.02
64889;BME280;51386;53.082;8.816;2023-11-19T02:52:59;100370.19;;;12.53;81.09
64889;BME280;51386;53.082;8.816;2023-11-19T02:55:27;100364.75;;;12.61;81.18
64889;BME280;51386;53.082;8.816;2023-11-19T02:57:58;100357.44;;;12.70;80.85
64889;BME280;51386;53.082;8.816;2023-11-19T03:00:28;100355.47;;;12.78;80.51
64889;BME280;51386;53.082;8.816;2023-11-19T03:03:03;100349.59;;;12.83;80.33
64889;BME280;51386;53.082;8.816;2023-11-19T03:05:47;100351.03;;;12.92;80.52
64889;BME280;51386;53.082;8.816;2023-11-19T03:08:15;100351.84;;;12.99;80.08
64889;BME280;51386;53.082;8.816;2023-11-19T03:10:47;100343.94;;;12.99;80.72
64889;BME280;51386;53.082;8.816;2023-11-19T03:13:16;100333.59;;;13.04;80.52
64889;BME280;51386;53.082;8.816;2023-11-19T03:15:46;100341.34;;;13.06;80.64
64889;BME280;51386;53.082;8.816;2023-11-19T03:18:14;100337.69;;;13.13;80.73
64889;BME280;51386;53.082;8.816;2023-11-19T03:20:43;100328.34;;;13.17;80.74
64889;BME280;51386;53.082;8.816;2023-11-19T03:23:11;100326.72;;;13.23;80.10
64889;BME280;51386;53.082;8.816;2023-11-19T03:25:40;100328.38;;;13.30;80.10
64889;BME280;51386;53.082;8.816;2023-11-19T03:28:08;100330.19;;;13.36;80.21
64889;BME280;51386;53.082;8.816;2023-11-19T03:30:37;100319.00;;;13.41;79.71
64889;BME280;51386;53.082;8.816;2023-11-19T03:33:05;100323.06;;;13.43;79.58
64889;BME280;51386;53.082;8.816;2023-11-19T03:35:33;100324.31;;;13.47;79.45
64889;BME280;51386;53.082;8.816;2023-11-19T03:38:02;100323.88;;;13.50;79.22
64889;BME280;51386;53.082;8.816;2023-11-19T03:40:30;100325.13;;;13.54;79.17
64889;BME280;51386;53.082;8.816;2023-11-19T03:42:59;100325.91;;;13.55;79.23
64889;BME280;51386;53.082;8.816;2023-11-19T03:45:27;100318.81;;;13.55;79.36
64889;BME280;51386;53.082;8.816;2023-11-19T03:47:55;100315.75;;;13.58;79.56
64889;BME280;51386;53.082;8.816;2023-11-19T03:50:24;100316.78;;;13.64;79.53
64889;BME280;51386;53.082;8.816;2023-11-19T03:52:52;100319.81;;;13.68;78.99
64889;BME280;51386;53.082;8.816;2023-11-19T03:55:20;100317.00;;;13.69;79.25
64889;BME280;51386;53.082;8.816;2023-11-19T03:57:49;100311.09;;;13.74;79.33
64889;BME280;51386;53.082;8.816;2023-11-19T04:00:17;100320.22;;;13.78;78.78
64889;BME280;51386;53.082;8.816;2023-11-19T04:02:49;100319.81;;;13.81;78.89
64889;BME280;51386;53.082;8.816;2023-11-19T04:05:17;100323.06;;;13.83;78.79
64889;BME280;51386;53.082;8.816;2023-11-19T04:07:46;100324.28;;;13.87;78.96
64889;BME280;51386;53.082;8.816;2023-11-19T04:10:15;100323.88;;;13.90;78.91
64889;BME280;51386;53.082;8.816;2023-11-19T04:12:44;100325.06;;;13.94;78.60
64889;BME280;51386;53.082;8.816;2023-11-19T04:15:14;100314.09;;;13.97;79.12
64889;BME280;51386;53.082;8.816;2023-11-19T04:17:43;100322.41;;;14.00;78.71
64889;BME280;51386;53.082;8.816;2023-11-19T04:20:12;100325.47;;;14.04;78.86
64889;BME280;51386;53.082;8.816;2023-11-19T04:22:42;100323.44;;;14.06;79.00
64889;BME280;51386;53.082;8.816;2023-11-19T04:25:10;100323.84;;;14.09;78.76
64889;BME280;51386;53.082;8.816;2023-11-19T04:27:39;100317.31;;;14.12;78.83
64889;BME280;51386;53.082;8.816;2023-11-19T04:30:07;100318.53;;;14.09;78.39
64889;BME280;51386;53.082;8.816;2023-11-19T04:32:38;100317.91;;;14.14;78.86
64889;BME280;51386;53.082;8.816;2023-11-19T04:35:08;100308.94;;;14.15;78.68
64889;BME280;51386;53.082;8.816;2023-11-19T04:37:37;100313.59;;;14.19;78.71
64889;BME280;51386;53.082;8.816;2023-11-19T04:40:06;100306.06;;;14.23;78.53
64889;BME280;51386;53.082;8.816;2023-11-19T04:42:35;100309.53;;;14.23;78.45
64889;BME280;51386;53.082;8.816;2023-11-19T04:45:04;100304.03;;;14.25;78.64
64889;BME280;51386;53.082;8.816;2023-11-19T04:47:34;100297.28;;;14.29;78.68
64889;BME280;51386;53.082;8.816;2023-11-19T04:50:03;100290.78;;;14.32;78.77
64889;BME280;51386;53.082;8.816;2023-11-19T04:52:32;100286.72;;;14.36;78.42
64889;BME280;51386;53.082;8.816;2023-11-19T04:55:00;100284.69;;;14.38;78.61
64889;BME280;51386;53.082;8.816;2023-11-19T04:57:29;100286.28;;;14.39;78.27
64889;BME280;51386;53.082;8.816;2023-11-19T04:59:57;100279.38;;;14.38;78.24
64889;BME280;51386;53.082;8.816;2023-11-19T05:02:26;100281.22;;;14.37;78.08
64889;BME280;51386;53.082;8.816;2023-11-19T05:04:54;100280.16;;;14.38;78.43
64889;BME280;51386;53.082;8.816;2023-11-19T05:07:23;100279.75;;;14.41;78.27
64889;BME280;51386;53.082;8.816;2023-11-19T05:09:51;100288.31;;;14.43;78.33
64889;BME280;51386;53.082;8.816;2023-11-19T05:12:19;100278.34;;;14.45;78.07
64889;BME280;51386;53.082;8.816;2023-11-19T05:14:48;100271.78;;;14.48;78.36
64889;BME280;51386;53.082;8.816;2023-11-19T05:17:18;100276.88;;;14.49;78.41
64889;BME280;51386;53.082;8.816;2023-11-19T05:19:47;100279.53;;;14.49;78.06
64889;BME280;51386;53.082;8.816;2023-11-19T05:22:17;100280.13;;;14.51;78.17
64889;BME280;51386;53.082;8.816;2023-11-19T05:24:45;100280.72;;;14.53;78.54
64889;BME280;51386;53.082;8.816;2023-11-19T05:27:14;100285.00;;;14.54;78.30
64889;BME280;51386;53.082;8.816;2023-11-19T05:29:43;100270.72;;;14.55;78.21
64889;BME280;51386;53.082;8.816;2023-11-19T05:32:11;100282.97;;;14.56;78.30
64889;BME280;51386;53.082;8.816;2023-11-19T05:34:40;100283.13;;;14.61;78.22
64889;BME280;51386;53.082;8.816;2023-11-19T05:37:11;100284.56;;;14.64;78.28
64889;BME280;51386;53.082;8.816;2023-11-19T05:39:39;100286.97;;;14.65;78.36
64889;BME280;51386;53.082;8.816;2023-11-19T05:42:08;100279.63;;;14.67;78.19
64889;BME280;51386;53.082;8.816;2023-11-19T05:44:37;100278.16;;;14.71;78.11
64889;BME280;51386;53.082;8.816;2023-11-19T05:47:07;100276.16;;;14.73;78.31
64889;BME280;51386;53.082;8.816;2023-11-19T05:49:36;100278.34;;;14.76;78.23
64889;BME280;51386;53.082;8.816;2023-11-19T05:52:04;100278.97;;;14.78;78.25
64889;BME280;51386;53.082;8.816;2023-11-19T05:54:35;100286.47;;;14.81;78.47
64889;BME280;51386;53.082;8.816;2023-11-19T05:57:06;100294.22;;;14.83;77.96
64889;BME280;51386;53.082;8.816;2023-11-19T05:59:38;100298.28;;;14.85;78.26
64889;BME280;51386;53.082;8.816;2023-11-19T06:02:06;100303.59;;;14.85;77.83
64889;BME280;51386;53.082;8.816;2023-11-19T06:04:34;100290.94;;;14.87;77.63
64889;BME280;51386;53.082;8.816;2023-11-19T06:07:03;100298.66;;;14.89;77.76
64889;BME280;51386;53.082;8.816;2023-11-19T06:09:33;100295.78;;;14.90;77.68
64889;BME280;51386;53.082;8.816;2023-11-19T06:12:02;100291.31;;;14.91;77.68
64889;BME280;51386;53.082;8.816;2023-11-19T06:14:30;100299.06;;;14.93;77.82
64889;BME280;51386;53.082;8.816;2023-11-19T06:16:59;100295.38;;;14.93;77.66
64889;BME280;51386;53.082;8.816;2023-11-19T06:19:28;100297.00;;;14.95;77.84
64889;BME280;51386;53.082;8.816;2023-11-19T06:21:57;100298.63;;;14.96;77.56
64889;BME280;51386;53.082;8.816;2023-11-19T06:24:25;100309.22;;;14.96;77.48
64889;BME280;51386;53.082;8.816;2023-11-19T06:26:54;100311.66;;;14.97;77.77
64889;BME280;51386;53.082;8.816;2023-11-19T06:29:22;100302.09;;;14.96;77.67
64889;BME280;51386;53.082;8.816;2023-11-19T06:31:50;100310.63;;;14.98;77.53
64889;BME280;51386;53.082;8.816;2023-11-19T06:34:19;100309.63;;;14.99;77.76
64889;BME280;51386;53.082;8.816;2023-11-19T06:36:47;100308.78;;;14.99;77.73
64889;BME280;51386;53.082;8.816;2023-11-19T06:39:16;100306.75;;;15.01;77.79
64889;BME280;51386;53.082;8.816;2023-11-19T06:41:46;100311.22;;;15.00;77.54
64889;BME280;51386;53.082;8.816;2023-11-19T06:44:15;100318.38;;;15.00;77.13
64889;BME280;51386;53.082;8.816;2023-11-19T06:46:43;100320.00;;;15.01;77.37
64889;BME280;51386;53.082;8.816;2023-11-19T06:49:12;100325.72;;;14.98;77.03
64889;BME280;51386;53.082;8.816;2023-11-19T06:51:43;100309.22;;;14.96;77.70
64889;BME280;51386;53.082;8.816;2023-11-19T06:54:12;100311.66;;;14.97;77.31
64889;BME280;51386;53.082;8.816;2023-11-19T06:56:40;100317.16;;;14.96;76.92
64889;BME280;51386;53.082;8.816;2023-11-19T06:59:09;100317.16;;;14.96;77.04
64889;BME280;51386;53.082;8.816;2023-11-19T07:01:38;100323.50;;;14.95;76.72
64889;BME280;51386;53.082;8.816;2023-11-19T07:04:06;100318.22;;;14.95;77.09
64889;BME280;51386;53.082;8.816;2023-11-19T07:06:37;100330.41;;;14.96;76.67
64889;BME280;51386;53.082;8.816;2023-11-19T07:09:09;100329.63;;;14.95;77.16
64889;BME280;51386;53.082;8.816;2023-11-19T07:11:41;100332.47;;;14.93;76.90
64889;BME280;51386;53.082;8.816;2023-11-19T07:14:10;100330.41;;;14.96;77.10
64889;BME280;51386;53.082;8.816;2023-11-19T07:16:39;100330.22;;;14.97;77.03
64889;BME280;51386;53.082;8.816;2023-11-19T07:19:07;100348.56;;;14.99;77.21
64889;BME280;51386;53.082;8.816;2023-11-19T07:21:36;100336.31;;;14.98;76.62
64889;BME280;51386;53.082;8.816;2023-11-19T07:24:11;100347.38;;;14.95;76.73
64889;BME280;51386;53.082;8.816;2023-11-19T07:26:43;100342.47;;;14.91;76.26
64889;BME280;51386;53.082;8.816;2023-11-19T07:29:13;100342.88;;;14.88;76.61
64889;BME280;51386;53.082;8.816;2023-11-19T07:31:55;100334.34;;;14.86;76.76
64889;BME280;51386;53.082;8.816;2023-11-19T07:34:24;100338.22;;;14.84;76.56
64889;BME280;51386;53.082;8.816;2023-11-19T07:36:53;100353.31;;;14.83;76.77
64889;BME280;51386;53.082;8.816;2023-11-19T07:39:21;100348.47;;;14.80;76.32
64889;BME280;51386;53.082;8.816;2023-11-19T07:41:50;100351.53;;;14.77;76.14
64889;BME280;51386;53.082;8.816;2023-11-19T07:44:19;100350.91;;;14.75;76.53
64889;BME280;51386;53.082;8.816;2023-11-19T07:46:49;100349.69;;;14.71;76.02
64889;BME280;51386;53.082;8.816;2023-11-19T07:49:17;100354.81;;;14.73;76.54
64889;BME280;51386;53.082;8.816;2023-11-19T07:51:46;100352.97;;;14.73;76.30
64889;BME280;51386;53.082;8.816;2023-11-19T07:54:14;100353.56;;;14.75;76.35
64889;BME280;51386;53.082;8.816;2023-11-19T07:56:42;100357.81;;;14.76;76.62
64889;BME280;51386;53.082;8.816;2023-11-19T07:59:11;100349.69;;;14.78;76.09
64889;BME280;51386;53.082;8.816;2023-11-19T08:01:39;100358.47;;;14.78;76.07
64889;BME280;51386;53.082;8.816;2023-11-19T08:04:07;100365.38;;;14.79;76.45
64889;BME280;51386;53.082;8.816;2023-11-19T08:06:36;100363.53;;;14.80;76.07
64889;BME280;51386;53.082;8.816;2023-11-19T08:09:05;100368.63;;;14.81;75.92
64889;BME280;51386;53.082;8.816;2023-11-19T08:11:34;100369.44;;;14.82;76.12
64889;BME280;51386;53.082;8.816;2023-11-19T08:14:02;100369.22;;;14.83;76.05
64889;BME280;51386;53.082;8.816;2023-11-19T08:16:31;100376.75;;;14.86;75.67
64889;BME280;51386;53.082;8.816;2023-11-19T08:18:59;100375.72;;;14.87;75.39
64889;BME280;51386;53.082;8.816;2023-11-19T08:21:28;100382.63;;;14.88;75.50
64889;BME280;51386;53.082;8.816;2023-11-19T08:23:56;100387.75;;;14.90;75.69
64889;BME280;51386;53.082;8.816;2023-11-19T08:26:25;100389.56;;;14.89;75.44
64889;BME280;51386;53.082;8.816;2023-11-19T08:28:53;100398.13;;;14.91;75.08
64889;BME280;51386;53.082;8.816;2023-11-19T08:31:21;100400.19;;;14.89;75.32
64889;BME280;51386;53.082;8.816;2023-11-19T08:33:50;100399.97;;;14.91;75.12
64889;BME280;51386;53.082;8.816;2023-11-19T08:36:19;100401.38;;;14.93;74.97
64889;BME280;51386;53.082;8.816;2023-11-19T08:38:47;100407.47;;;15.01;75.33
64889;BME280;51386;53.082;8.816;2023-11-19T08:41:16;100410.88;;;15.08;74.77
64889;BME280;51386;53.082;8.816;2023-11-19T08:43:45;100418.00;;;15.14;74.62
64889;BME280;51386;53.082;8.816;2023-11-19T08:46:14;100412.88;;;15.19;74.68
64889;BME280;51386;53.082;8.816;2023-11-19T08:48:42;100417.56;;;15.23;73.76
64889;BME280;51386;53.082;8.816;2023-11-19T08:51:11;100408.38;;;15.26;73.58
64889;BME280;51386;53.082;8.816;2023-11-19T08:53:40;100411.81;;;15.26;73.34
64889;BME280;51386;53.082;8.816;2023-11-19T08:56:09;100405.25;;;15.29;73.42
64889;BME280;51386;53.082;8.816;2023-11-19T08:58:37;100411.56;;;15.34;73.66
64889;BME280;51386;53.082;8.816;2023-11-19T09:01:05;100412.09;;;15.43;73.75
64889;BME280;51386;53.082;8.816;2023-11-19T09:03:34;100412.31;;;15.48;73.25
64889;BME280;51386;53.082;8.816;2023-11-19T09:06:02;100414.13;;;15.54;73.48
64889;BME280;51386;53.082;8.816;2023-11-19T09:08:31;100408.53;;;15.62;73.24
64889;BME280;51386;53.082;8.816;2023-11-19T09:10:59;100409.94;;;15.71;72.87
64889;BME280;51386;53.082;8.816;2023-11-19T09:13:28;100416.00;;;15.78;72.75
64889;BME280;51386;53.082;8.816;2023-11-19T09:15:56;100409.81;;;15.84;72.55
64889;BME280;51386;53.082;8.816;2023-11-19T09:18:31;100425.31;;;15.87;71.87
64889;BME280;51386;53.082;8.816;2023-11-19T09:21:00;100424.09;;;15.83;71.44
64889;BME280;51386;53.082;8.816;2023-11-19T09:23:28;100422.47;;;15.82;71.00
64889;BME280;51386;53.082;8.816;2023-11-19T09:26:01;100419.84;;;15.82;71.04
64889;BME280;51386;53.082;8.816;2023-11-19T09:28:29;100420.81;;;15.88;71.61
64889;BME280;51386;53.082;8.816;2023-11-19T09:30:57;100421.19;;;15.91;71.29
64889;BME280;51386;53.082;8.816;2023-11-19T09:33:26;100425.72;;;15.84;69.74
64889;BME280;51386;53.082;8.816;2023-11-19T09:35:55;100420.47;;;15.78;70.04
64889;BME280;51386;53.082;8.816;2023-11-19T09:38:23;100427.03;;;15.75;70.61
64889;BME280;51386;53.082;8.816;2023-11-19T09:40:52;100419.72;;;15.71;70.66
64889;BME280;51386;53.082;8.816;2023-11-19T09:43:21;100432.41;;;15.69;70.87
64889;BME280;51386;53.082;8.816;2023-11-19T09:45:50;100439.72;;;15.67;70.77
64889;BME280;51386;53.082;8.816;2023-11-19T09:48:19;100437.72;;;15.62;71.08
64889;BME280;51386;53.082;8.816;2023-11-19T09:50:48;100435.13;;;15.55;70.77
64889;BME280;51386;53.082;8.816;2023-11-19T09:53:17;100432.09;;;15.52;71.23
64889;BME280;51386;53.082;8.816;2023-11-19T09:55:46;100434.56;;;15.47;71.35
64889;BME280;51386;53.082;8.816;2023-11-19T09:58:15;100437.44;;;15.39;70.59
64889;BME280;51386;53.082;8.816;2023-11-19T10:00:43;100447.44;;;15.37;71.28
64889;BME280;51386;53.082;8.816;2023-11-19T10:03:26;100437.44;;;15.39;71.75
64889;BME280;51386;53.082;8.816;2023-11-19T10:05:55;100440.09;;;15.39;71.87
64889;BME280;51386;53.082;8.816;2023-11-19T10:08:24;100437.03;;;15.42;71.78
64889;BME280;51386;53.082;8.816;2023-11-19T10:10:52;100434.78;;;15.39;71.26
64889;BME280;51386;53.082;8.816;2023-11-19T10:13:26;100432.13;;;15.39;71.74
64889;BME280;51386;53.082;8.816;2023-11-19T10:15:58;100426.00;;;15.38;71.58
64889;BME280;51386;53.082;8.816;2023-11-19T10:18:26;100429.91;;;15.36;71.67
64889;BME280;51386;53.082;8.816;2023-11-19T10:20:55;100444.22;;;15.35;72.21
64889;BME280;51386;53.082;8.816;2023-11-19T10:23:23;100431.38;;;15.32;71.75
64889;BME280;51386;53.082;8.816;2023-11-19T10:25:53;100423.22;;;15.27;71.72
64889;BME280;51386;53.082;8.816;2023-11-19T10:28:21;100427.34;;;15.23;72.30
64889;BME280;51386;53.082;8.816;2023-11-19T10:30:50;100425.69;;;15.22;72.16
64889;BME280;51386;53.082;8.816;2023-11-19T10:33:29;100430.63;;;15.18;72.17
64889;BME280;51386;53.082;8.816;2023-11-19T10:35:58;100432.25;;;15.19;72.70
64889;BME280;51386;53.082;8.816;2023-11-19T10:38:29;100453.03;;;15.22;72.79
64889;BME280;51386;53.082;8.816;2023-11-19T10:40:58;100439.56;;;15.24;72.86
64889;BME280;51386;53.082;8.816;2023-11-19T10:43:27;100438.13;;;15.28;72.62
64889;BME280;51386;53.082;8.816;2023-11-19T10:46:10;100434.88;;;15.26;73.02
64889;BME280;51386;53.082;8.816;2023-11-19T10:48:40;100437.84;;;15.36;73.08
64889;BME280;51386;53.082;8.816;2023-11-19T10:51:08;100439.06;;;15.40;72.45
64889;BME280;51386;53.082;8.816;2023-11-19T10:53:38;100436.44;;;15.40;72.28
64889;BME280;51386;53.082;8.816;2023-11-19T10:56:13;100434.19;;;15.37;72.03
64889;BME280;51386;53.082;8.816;2023-11-19T10:58:45;100433.19;;;15.38;72.32
64889;BME280;51386;53.082;8.816;2023-11-19T11:01:35;100435.84;;;15.38;71.99
64889;BME280;51386;53.082;8.816;2023-11-19T11:04:14;100444.75;;;15.43;71.93
64889;BME280;51386;53.082;8.816;2023-11-19T11:06:44;100446.16;;;15.52;72.40
64889;BME280;51386;53.082;8.816;2023-11-19T11:09:14;100443.47;;;15.59;71.62
64889;BME280;51386;53.082;8.816;2023-11-19T11:11:47;100444.66;;;15.63;71.90
64889;BME280;51386;53.082;8.816;2023-11-19T11:14:18;100428.34;;;15.66;71.93
64889;BME280;51386;53.082;8.816;2023-11-19T11:16:48;100432.75;;;15.72;71.67
64889;BME280;51386;53.082;8.816;2023-11-19T11:19:18;100424.97;;;15.77;71.43
64889;BME280;51386;53.082;8.816;2023-11-19T11:21:52;100424.72;;;15.85;71.45
64889;BME280;51386;53.082;8.816;2023-11-19T11:24:31;100432.63;;;15.92;70.96
64889;BME280;51386;53.082;8.816;2023-11-19T11:30:53;100428.56;;;15.89;70.89
64889;BME280;51386;53.082;8.816;2023-11-19T11:39:36;100439.44;;;16.06;70.09
64889;BME280;51386;53.082;8.816;2023-11-19T11:45:11;100428.91;;;16.17;69.86
64889;BME280;51386;53.082;8.816;2023-11-19T11:55:28;100436.03;;;16.23;68.60
64889;BME280;51386;53.082;8.816;2023-11-19T11:58:00;100422.13;;;16.21;68.41
64889;BME280;51386;53.082;8.816;2023-11-19T12:03:00;100423.75;;;16.22;68.10
64889;BME280;51386;53.082;8.816;2023-11-19T12:05:38;100427.91;;;16.18;67.35
64889;BME280;51386;53.082;8.816;2023-11-19T12:08:14;100420.34;;;16.15;68.11
64889;BME280;51386;53.082;8.816;2023-11-19T12:10:50;100420.03;;;16.05;66.88
64889;BME280;51386;53.082;8.816;2023-11-19T12:13:21;100417.81;;;16.02;67.93
64889;BME280;51386;53.082;8.816;2023-11-19T12:18:34;100419.50;;;15.97;68.43
64889;BME280;51386;53.082;8.816;2023-11-19T12:21:03;100402.34;;;15.99;68.61
64889;BME280;51386;53.082;8.816;2023-11-19T12:23:34;100412.94;;;15.99;68.74
64889;BME280;51386;53.082;8.816;2023-11-19T12:26:02;100409.47;;;15.99;68.30
64889;BME280;51386;53.082;8.816;2023-11-19T12:28:31;100410.50;;;15.98;68.71
64889;BME280;51386;53.082;8.816;2023-11-19T12:31:09;100417.06;;;15.95;68.45
64889;BME280;51386;53.082;8.816;2023-11-19T12:33:37;100413.38;;;15.96;68.60
64889;BME280;51386;53.082;8.816;2023-11-19T12:36:06;100413.81;;;15.93;68.42
64889;BME280;51386;53.082;8.816;2023-11-19T12:38:36;100415.88;;;15.91;68.55
64889;BME280;51386;53.082;8.816;2023-11-19T12:41:09;100414.22;;;15.90;68.63
64889;BME280;51386;53.082;8.816;2023-11-19T12:43:44;100412.63;;;15.89;68.71
64889;BME280;51386;53.082;8.816;2023-11-19T12:46:23;100409.81;;;15.84;68.46
64889;BME280;51386;53.082;8.816;2023-11-19T12:48:51;100412.88;;;15.81;69.15
64889;BME280;51386;53.082;8.816;2023-11-19T12:51:21;100411.59;;;15.66;68.38
64889;BME280;51386;53.082;8.816;2023-11-19T12:53:51;100417.97;;;15.58;69.04
64889;BME280;51386;53.082;8.816;2023-11-19T12:56:30;100425.38;;;15.49;69.23
64889;BME280;51386;53.082;8.816;2023-11-19T12:59:13;100418.06;;;15.38;68.97
64889;BME280;51386;53.082;8.816;2023-11-19T13:01:55;100429.72;;;15.31;69.21
64889;BME280;51386;53.082;8.816;2023-11-19T13:04:30;100435.28;;;15.23;69.24
64889;BME280;51386;53.082;8.816;2023-11-19T13:06:59;100434.28;;;15.17;69.49
64889;BME280;51386;53.082;8.816;2023-11-19T13:09:32;100412.31;;;15.10;69.59
64889;BME280;51386;53.082;8.816;2023-11-19T13:12:14;100416.44;;;15.00;69.86
64889;BME280;51386;53.082;8.816;2023-11-19T13:14:43;100404.63;;;14.96;69.54
64889;BME280;51386;53.082;8.816;2023-11-19T13:17:15;100405.91;;;14.86;69.19
64889;BME280;51386;53.082;8.816;2023-11-19T13:19:51;100393.72;;;14.72;69.22
64889;BME280;51386;53.082;8.816;2023-11-19T13:22:28;100391.28;;;14.64;69.50
64889;BME280;51386;53.082;8.816;2023-11-19T13:24:57;100390.50;;;14.57;69.06
64889;BME280;51386;53.082;8.816;2023-11-19T13:27:27;100383.41;;;14.51;68.69
64889;BME280;51386;53.082;8.816;2023-11-19T13:29:55;100382.22;;;14.47;69.26